Weather at Private Helipad

Public forecast

Using degrees Celsius for public forecast. Weather courtesy of forecast.io.

Closest aviation weather report (METAR) to Private Helipad

Closest report is Mykonos Island National Airport, 3.0 nm (5.6 km) W.

2024/02/22 09:50 (retrieved 28 minutes ago)

LGMK 220950Z 34004KT 280V040 9999 SCT030 15/04 Q1023

Closest aviation forecast (TAF) to Private Helipad

Closest forecast is Santorini Airport, 62.7 nm (116.0 km) S.

2024/02/22 06:15 (retrieved 4 hours ago)

TAF LGSR 220500Z 2206/2306 VRB05KT 9999 FEW018 SCT030 BECMG 2207/2209 FEW020 BECMG 2216/2218 18010KT